Milas, Turkey
Current Conditions -  °F | °C
As of 1:20 PM on Tuesday 21 Oct 2014 (Local Time) from LTFE Reporting Station
Clear Clear  
Wind Chill: 79°   Ceiling: Unl
Heat Index: 79°   Visibility: 6mi
Dew Point: 37°   Wind: 9mph
Humidity: 23%   Direction: 290°WNW
Pressure: 29.94"   Gusts: NA
Location:  37.32°N, 27.77°E
Report Text: LTFE 211020Z 29008KT 260V360 CAVOK 26/03 Q1014 NOSIG
Loading
Personal Weather Stations






























Interactive Weather Map New forecast layout! Learn more

10-Day Weather Forecast

Advertisements
Track Severe Weather on mobile